Time;durP1;ratioP1;P1;durP2;ratioP2;P2;SDS_P1;SDS_P2;PMS_P1;PMS_P2;Temp;Humidity;BMP_temperature;BMP_pressure;BME280_temperature;BME280_humidity;BME280_pressure;Samples;Min_cycle;Max_cycle;Signal;HPM_P1;HPM_P2
2022/03/02 00:01:07;;;;;;;21.73;12.95;;;;;;;;;;5056674;28;20037;-64
2022/03/02 00:03:53;;;;;;;22.77;12.55;;;;;;;;;;5052345;28;20028;-70
2022/03/02 00:06:38;;;;;;;20.83;11.52;;;;;;;;;;5044220;28;20030;-69
2022/03/02 00:09:23;;;;;;;23.15;12.43;;;;;;;;;;5053602;28;20435;-69
2022/03/02 00:12:08;;;;;;;23.08;13.57;;;;;;;;;;5051448;28;20039;-67
2022/03/02 00:14:54;;;;;;;20.27;12.10;;;;;;;;;;5048136;28;20183;-68
2022/03/02 00:17:39;;;;;;;24.13;13.15;;;;;;;;;;5054444;28;20028;-64
2022/03/02 00:20:24;;;;;;;24.42;12.65;;;;;;;;;;5047058;28;20036;-66
2022/03/02 00:23:09;;;;;;;21.65;12.68;;;;;;;;;;5063327;28;20116;-70
2022/03/02 00:25:55;;;;;;;20.23;12.75;;;;;;;;;;5051633;28;20020;-68
2022/03/02 00:28:40;;;;;;;22.08;12.20;;;;;;;;;;5064599;28;20562;-70
2022/03/02 00:31:25;;;;;;;19.00;12.30;;;;;;;;;;5063868;28;20044;-71
2022/03/02 00:34:11;;;;;;;20.40;11.50;;;;;;;;;;5057983;28;20031;-69
2022/03/02 00:36:57;;;;;;;21.27;12.23;;;;;;;;;;5067999;28;20398;-63
2022/03/02 00:39:43;;;;;;;20.45;11.38;;;;;;;;;;5056515;28;20032;-69
2022/03/02 00:42:30;;;;;;;25.13;13.88;;;;;;;;;;5053585;28;20040;-68
2022/03/02 00:45:15;;;;;;;22.00;12.73;;;;;;;;;;5053762;28;20042;-69
2022/03/02 00:48:00;;;;;;;21.95;12.63;;;;;;;;;;5081960;28;20020;-70
2022/03/02 00:50:46;;;;;;;20.65;12.15;;;;;;;;;;5067963;28;20051;-69
2022/03/02 00:53:31;;;;;;;22.30;13.30;;;;;;;;;;5068571;28;20075;-68
2022/03/02 00:56:16;;;;;;;20.05;11.07;;;;;;;;;;5053635;28;20036;-68
2022/03/02 00:59:02;;;;;;;20.35;12.52;;;;;;;;;;5052264;28;20393;-61
2022/03/02 01:01:47;;;;;;;21.60;13.13;;;;;;;;;;5065675;28;21510;-60
2022/03/02 01:04:33;;;;;;;20.02;12.60;;;;;;;;;;5053800;28;20100;-63
2022/03/02 01:07:18;;;;;;;23.08;12.07;;;;;;;;;;5074542;28;20040;-63
2022/03/02 01:10:05;;;;;;;22.00;12.85;;;;;;;;;;5059380;28;20081;-62
2022/03/02 01:12:50;;;;;;;20.33;12.27;;;;;;;;;;5049864;28;20028;-61
2022/03/02 01:15:35;;;;;;;19.38;12.45;;;;;;;;;;5069043;28;20232;-67
2022/03/02 01:18:21;;;;;;;20.48;11.93;;;;;;;;;;5058961;28;20122;-63
2022/03/02 01:21:06;;;;;;;20.10;11.70;;;;;;;;;;5055799;28;20033;-63
2022/03/02 01:23:53;;;;;;;24.95;11.27;;;;;;;;;;5071831;28;20047;-66
2022/03/02 01:26:39;;;;;;;21.90;14.20;;;;;;;;;;5053331;28;20044;-63
2022/03/02 01:29:24;;;;;;;19.67;12.23;;;;;;;;;;5046361;28;20356;-64
2022/03/02 01:32:10;;;;;;;20.30;11.82;;;;;;;;;;5064829;28;20120;-63
2022/03/02 01:34:55;;;;;;;21.92;12.55;;;;;;;;;;5063259;28;20107;-65
2022/03/02 01:37:40;;;;;;;24.33;13.10;;;;;;;;;;5053718;28;20072;-66
2022/03/02 01:40:25;;;;;;;18.15;11.52;;;;;;;;;;5061983;28;20029;-64
2022/03/02 01:43:11;;;;;;;19.80;11.45;;;;;;;;;;5069366;28;20269;-65
2022/03/02 01:45:57;;;;;;;21.15;12.73;;;;;;;;;;5043976;28;20044;-66
2022/03/02 01:48:42;;;;;;;18.90;11.45;;;;;;;;;;5048217;28;20020;-65
2022/03/02 01:51:27;;;;;;;21.73;11.55;;;;;;;;;;5065806;28;20038;-60
2022/03/02 01:54:13;;;;;;;24.95;12.25;;;;;;;;;;5052242;28;20070;-69
2022/03/02 01:56:58;;;;;;;25.92;11.65;;;;;;;;;;5064305;28;20032;-66
2022/03/02 01:59:44;;;;;;;35.70;13.23;;;;;;;;;;5042439;28;20094;-69
2022/03/02 02:02:29;;;;;;;24.30;12.75;;;;;;;;;;5064424;28;20134;-69
2022/03/02 02:05:15;;;;;;;23.02;12.98;;;;;;;;;;5050090;28;20039;-71
2022/03/02 02:08:00;;;;;;;19.48;12.48;;;;;;;;;;5064306;28;20035;-62
2022/03/02 02:10:45;;;;;;;24.80;12.88;;;;;;;;;;5061591;28;20097;-63
2022/03/02 02:13:32;;;;;;;24.02;12.65;;;;;;;;;;5054503;28;20036;-64
2022/03/02 02:16:19;;;;;;;19.58;12.68;;;;;;;;;;5060604;28;20032;-64
2022/03/02 02:19:05;;;;;;;21.20;12.88;;;;;;;;;;5053216;28;20029;-64
2022/03/02 02:21:50;;;;;;;21.33;12.93;;;;;;;;;;5056806;28;20043;-67
2022/03/02 02:24:35;;;;;;;22.05;13.20;;;;;;;;;;5056640;28;20038;-65
2022/03/02 02:27:21;;;;;;;18.70;11.52;;;;;;;;;;5068904;28;20036;-64
2022/03/02 02:30:07;;;;;;;19.40;11.77;;;;;;;;;;5059208;28;20309;-66
2022/03/02 02:32:52;;;;;;;20.48;11.85;;;;;;;;;;5055150;28;20033;-64
2022/03/02 02:35:37;;;;;;;22.67;13.65;;;;;;;;;;5061970;28;20067;-66
2022/03/02 02:38:23;;;;;;;21.48;11.95;;;;;;;;;;5075050;28;20067;-63
2022/03/02 02:41:08;;;;;;;20.23;12.13;;;;;;;;;;5032583;28;20109;-65
2022/03/02 02:43:53;;;;;;;17.30;11.02;;;;;;;;;;5058407;28;20314;-63
2022/03/02 02:46:42;;;;;;;19.52;11.55;;;;;;;;;;5045727;28;20032;-68
2022/03/02 02:49:28;;;;;;;23.42;10.80;;;;;;;;;;5056903;28;20495;-67
2022/03/02 02:52:14;;;;;;;18.83;13.02;;;;;;;;;;5061277;28;20036;-69
2022/03/02 02:54:59;;;;;;;20.55;12.88;;;;;;;;;;5053649;28;20162;-66
2022/03/02 02:57:44;;;;;;;21.80;13.70;;;;;;;;;;5060973;28;20024;-67
2022/03/02 03:00:31;;;;;;;23.05;12.57;;;;;;;;;;5060593;28;20034;-66
2022/03/02 03:03:16;;;;;;;25.98;13.23;;;;;;;;;;5055490;28;20062;-68
2022/03/02 03:06:02;;;;;;;21.02;12.63;;;;;;;;;;5060567;28;20059;-70
2022/03/02 03:08:47;;;;;;;20.63;13.30;;;;;;;;;;5066833;28;20032;-61
2022/03/02 03:11:32;;;;;;;22.77;12.43;;;;;;;;;;5050621;28;20115;-60
2022/03/02 03:14:18;;;;;;;23.08;13.82;;;;;;;;;;5056828;28;20087;-60
2022/03/02 03:17:03;;;;;;;19.73;11.88;;;;;;;;;;5065666;28;20523;-62
2022/03/02 03:19:48;;;;;;;18.83;11.40;;;;;;;;;;5054401;28;20433;-60
2022/03/02 03:22:33;;;;;;;18.27;11.68;;;;;;;;;;5078140;28;20066;-69
2022/03/02 03:25:19;;;;;;;21.98;11.88;;;;;;;;;;5054127;28;20031;-70
2022/03/02 03:28:05;;;;;;;19.15;11.75;;;;;;;;;;5064952;28;20490;-68
2022/03/02 03:30:50;;;;;;;22.50;13.25;;;;;;;;;;5081116;28;20032;-66
2022/03/02 03:33:36;;;;;;;22.20;12.63;;;;;;;;;;5060908;28;20116;-68
2022/03/02 03:36:21;;;;;;;20.85;12.02;;;;;;;;;;5060004;28;20518;-69
2022/03/02 03:39:06;;;;;;;18.63;11.48;;;;;;;;;;5068631;28;20028;-69
2022/03/02 03:41:51;;;;;;;20.95;11.77;;;;;;;;;;5052980;28;20364;-68
2022/03/02 03:44:37;;;;;;;20.92;13.23;;;;;;;;;;5068526;28;20494;-66
2022/03/02 03:47:22;;;;;;;21.77;11.82;;;;;;;;;;5070396;28;20051;-68
2022/03/02 03:50:08;;;;;;;21.73;12.27;;;;;;;;;;5067311;28;20029;-69
2022/03/02 03:52:53;;;;;;;18.90;12.20;;;;;;;;;;5056405;28;20036;-69
2022/03/02 03:55:38;;;;;;;20.35;13.43;;;;;;;;;;5049198;28;20094;-67
2022/03/02 03:58:24;;;;;;;22.25;12.68;;;;;;;;;;5065313;28;20036;-63
2022/03/02 04:01:09;;;;;;;18.38;12.50;;;;;;;;;;5058664;28;20031;-68
2022/03/02 04:03:54;;;;;;;19.17;12.32;;;;;;;;;;5054176;28;20363;-67
2022/03/02 04:06:40;;;;;;;23.30;11.75;;;;;;;;;;5060682;28;20031;-67
2022/03/02 04:09:25;;;;;;;18.70;12.20;;;;;;;;;;5037462;28;20478;-66
2022/03/02 04:12:10;;;;;;;20.38;12.55;;;;;;;;;;5058480;28;20028;-70
2022/03/02 04:14:56;;;;;;;19.27;12.07;;;;;;;;;;5049839;28;20029;-68
2022/03/02 04:17:41;;;;;;;20.67;11.77;;;;;;;;;;5058912;28;20055;-71
2022/03/02 04:20:26;;;;;;;20.17;12.35;;;;;;;;;;5072753;28;20046;-71
2022/03/02 04:23:11;;;;;;;20.98;13.15;;;;;;;;;;5064502;28;20031;-68
2022/03/02 04:25:57;;;;;;;20.30;13.05;;;;;;;;;;5067626;28;20145;-69
2022/03/02 04:28:42;;;;;;;23.55;12.05;;;;;;;;;;5049888;28;20087;-68
2022/03/02 04:31:27;;;;;;;20.08;12.38;;;;;;;;;;5046752;28;20386;-69
2022/03/02 04:34:13;;;;;;;22.88;12.55;;;;;;;;;;5061637;28;20024;-70
2022/03/02 04:36:58;;;;;;;22.73;13.00;;;;;;;;;;5057922;28;20037;-67
2022/03/02 04:39:44;;;;;;;24.02;13.05;;;;;;;;;;5053693;28;20361;-67
2022/03/02 04:42:29;;;;;;;20.65;12.65;;;;;;;;;;5054764;28;20035;-68
2022/03/02 04:45:14;;;;;;;22.23;13.68;;;;;;;;;;5064965;28;20115;-72
2022/03/02 04:48:00;;;;;;;21.40;12.85;;;;;;;;;;5067457;28;20048;-70
2022/03/02 04:50:45;;;;;;;23.40;13.48;;;;;;;;;;5055688;28;20052;-68
2022/03/02 04:53:30;;;;;;;20.65;11.63;;;;;;;;;;5063726;28;20036;-61
2022/03/02 04:56:16;;;;;;;27.00;13.85;;;;;;;;;;5053229;28;20029;-62
2022/03/02 04:59:01;;;;;;;20.35;11.60;;;;;;;;;;5059944;28;20024;-68
2022/03/02 05:01:47;;;;;;;20.98;11.20;;;;;;;;;;5051788;28;20028;-67
2022/03/02 05:04:32;;;;;;;19.13;11.82;;;;;;;;;;5056850;28;20260;-67
2022/03/02 05:07:17;;;;;;;19.02;11.10;;;;;;;;;;5054397;28;20040;-68
2022/03/02 05:10:04;;;;;;;20.15;12.25;;;;;;;;;;5062035;28;20028;-70
2022/03/02 05:12:49;;;;;;;22.65;13.15;;;;;;;;;;5061775;28;20042;-70
2022/03/02 05:15:35;;;;;;;21.10;12.45;;;;;;;;;;5062345;28;21447;-69
2022/03/02 05:18:20;;;;;;;29.50;13.27;;;;;;;;;;5052676;28;20032;-68
2022/03/02 05:21:05;;;;;;;20.65;12.27;;;;;;;;;;5054192;28;20028;-68
2022/03/02 05:23:51;;;;;;;23.90;12.88;;;;;;;;;;5063844;28;20050;-68
2022/03/02 05:26:36;;;;;;;25.08;13.02;;;;;;;;;;5056001;28;20063;-68
2022/03/02 05:29:21;;;;;;;21.52;13.10;;;;;;;;;;5060094;28;20028;-67
2022/03/02 05:32:06;;;;;;;21.10;12.82;;;;;;;;;;5059798;28;20036;-68
2022/03/02 05:34:52;;;;;;;20.30;11.73;;;;;;;;;;5060236;28;20028;-68
2022/03/02 05:37:42;;;;;;;21.00;12.15;;;;;;;;;;5057758;28;20052;-71
2022/03/02 05:40:27;;;;;;;20.33;12.80;;;;;;;;;;5059164;28;20044;-68
2022/03/02 05:43:13;;;;;;;19.25;12.07;;;;;;;;;;5053815;28;20375;-68
2022/03/02 05:45:58;;;;;;;22.25;12.18;;;;;;;;;;5071039;28;20037;-69
2022/03/02 05:48:43;;;;;;;20.98;12.85;;;;;;;;;;5063329;28;20390;-63
2022/03/02 05:51:30;;;;;;;25.35;13.80;;;;;;;;;;5062471;28;20439;-70
2022/03/02 05:54:15;;;;;;;22.08;12.55;;;;;;;;;;5063710;28;20028;-64
2022/03/02 05:57:01;;;;;;;23.77;12.68;;;;;;;;;;5054325;28;20028;-63
2022/03/02 05:59:46;;;;;;;25.58;12.93;;;;;;;;;;5065626;28;20093;-63
2022/03/02 06:02:32;;;;;;;24.10;13.60;;;;;;;;;;5060242;28;20043;-62
2022/03/02 06:05:17;;;;;;;22.30;11.98;;;;;;;;;;5070574;28;20075;-63
2022/03/02 06:08:02;;;;;;;24.08;12.50;;;;;;;;;;5069091;28;20040;-65
2022/03/02 06:10:48;;;;;;;26.85;13.25;;;;;;;;;;5086166;28;20542;-68
2022/03/02 06:13:34;;;;;;;22.58;12.93;;;;;;;;;;5070652;28;20478;-67
2022/03/02 06:16:19;;;;;;;21.98;13.40;;;;;;;;;;5072842;28;20036;-69
2022/03/02 06:19:06;;;;;;;22.00;13.60;;;;;;;;;;5037875;28;20475;-70
2022/03/02 06:21:52;;;;;;;19.85;12.45;;;;;;;;;;5062472;28;20043;-69
2022/03/02 06:24:37;;;;;;;25.98;14.30;;;;;;;;;;5043197;28;20505;-68
2022/03/02 06:27:23;;;;;;;23.35;13.00;;;;;;;;;;5064575;28;20418;-65
2022/03/02 06:30:08;;;;;;;22.83;13.48;;;;;;;;;;5058704;28;20037;-61
2022/03/02 06:32:53;;;;;;;24.02;14.18;;;;;;;;;;5053657;28;20025;-63
2022/03/02 06:35:39;;;;;;;21.88;13.10;;;;;;;;;;5059560;28;20056;-62
2022/03/02 06:38:24;;;;;;;22.73;11.88;;;;;;;;;;5057759;28;20093;-61
2022/03/02 06:41:29;;;;;;;20.13;11.68;;;;;;;;;;5063638;28;20032;-61
2022/03/02 06:44:30;;;;;;;22.50;12.57;;;;;;;;;;5057880;28;20029;-60
2022/03/02 06:47:17;;;;;;;26.65;13.15;;;;;;;;;;5064882;28;20028;-69
2022/03/02 06:50:05;;;;;;;26.90;13.18;;;;;;;;;;5041647;28;20082;-67
2022/03/02 06:52:52;;;;;;;20.58;12.50;;;;;;;;;;5060819;28;20064;-70
2022/03/02 06:55:39;;;;;;;22.85;13.25;;;;;;;;;;5044383;28;20422;-68
2022/03/02 06:58:25;;;;;;;22.92;13.70;;;;;;;;;;5043988;28;20092;-68
2022/03/02 07:01:11;;;;;;;25.92;13.43;;;;;;;;;;5060066;28;20491;-69
2022/03/02 07:03:57;;;;;;;21.67;13.63;;;;;;;;;;5053651;28;20041;-61
2022/03/02 07:06:43;;;;;;;31.83;12.77;;;;;;;;;;5045367;28;20422;-69
2022/03/02 07:09:29;;;;;;;25.63;13.25;;;;;;;;;;5052146;28;20543;-68
2022/03/02 07:12:15;;;;;;;22.60;12.60;;;;;;;;;;5051852;28;20029;-69
2022/03/02 07:15:00;;;;;;;22.88;12.30;;;;;;;;;;5045867;28;20082;-65
2022/03/02 07:17:46;;;;;;;29.17;13.13;;;;;;;;;;5053073;28;20024;-69
2022/03/02 07:20:31;;;;;;;21.98;12.85;;;;;;;;;;5039691;28;20455;-70
2022/03/02 07:23:18;;;;;;;24.92;12.70;;;;;;;;;;5052966;28;20186;-64
2022/03/02 07:26:05;;;;;;;24.45;13.60;;;;;;;;;;5053006;28;20042;-64
2022/03/02 07:28:50;;;;;;;28.42;13.40;;;;;;;;;;5054665;28;20066;-65
2022/03/02 07:31:35;;;;;;;25.67;14.25;;;;;;;;;;5060687;28;20348;-64
2022/03/02 07:34:21;;;;;;;20.35;12.00;;;;;;;;;;5059780;28;20024;-62
2022/03/02 07:37:06;;;;;;;27.95;14.05;;;;;;;;;;5067884;28;20161;-62
2022/03/02 07:39:52;;;;;;;27.80;14.00;;;;;;;;;;5051860;28;20047;-69
2022/03/02 07:42:37;;;;;;;21.63;13.82;;;;;;;;;;5053977;28;20067;-61
2022/03/02 07:45:22;;;;;;;23.95;14.13;;;;;;;;;;5052192;28;20166;-65
2022/03/02 07:48:10;;;;;;;29.45;14.00;;;;;;;;;;5060359;28;20099;-63
2022/03/02 07:50:56;;;;;;;24.02;13.75;;;;;;;;;;5057531;28;20312;-62
2022/03/02 07:53:49;;;;;;;21.60;13.80;;;;;;;;;;5044510;28;20115;-61
2022/03/02 07:56:34;;;;;;;22.90;13.93;;;;;;;;;;5044750;28;20525;-63
2022/03/02 07:59:20;;;;;;;29.63;14.15;;;;;;;;;;5052467;28;20088;-65
2022/03/02 08:02:07;;;;;;;30.90;15.40;;;;;;;;;;5042021;28;20024;-73
2022/03/02 08:04:52;;;;;;;23.95;14.68;;;;;;;;;;5055872;28;20036;-74
2022/03/02 08:07:38;;;;;;;25.90;14.15;;;;;;;;;;5037050;28;20036;-69
2022/03/02 08:10:23;;;;;;;27.73;14.10;;;;;;;;;;5051553;28;20478;-70
2022/03/02 08:13:11;;;;;;;30.63;14.40;;;;;;;;;;5054823;28;20040;-69
2022/03/02 08:15:56;;;;;;;23.95;13.98;;;;;;;;;;5043352;28;20115;-66
2022/03/02 08:18:41;;;;;;;31.75;15.52;;;;;;;;;;5053610;28;20040;-67
2022/03/02 08:21:29;;;;;;;27.25;14.45;;;;;;;;;;5052926;28;20035;-65
2022/03/02 08:24:16;;;;;;;30.83;15.70;;;;;;;;;;5038818;28;20115;-63
2022/03/02 08:27:02;;;;;;;31.35;14.07;;;;;;;;;;5031920;28;20094;-63
2022/03/02 08:29:52;;;;;;;27.92;14.45;;;;;;;;;;5052687;28;20135;-65
2022/03/02 08:32:38;;;;;;;;;;;;;;;;;;5050755;28;20559;-62
2022/03/02 08:35:24;;;;;;;25.15;14.45;;;;;;;;;;5060924;28;19907;-60
2022/03/02 08:38:10;;;;;;;26.67;15.57;;;;;;;;;;5053255;28;20063;-67
2022/03/02 08:40:55;;;;;;;28.15;14.82;;;;;;;;;;5053227;28;20418;-68
2022/03/02 08:43:41;;;;;;;26.00;15.10;;;;;;;;;;5053018;28;20028;-67
2022/03/02 08:46:27;;;;;;;27.65;15.07;;;;;;;;;;5047225;28;20048;-69
2022/03/02 08:49:13;;;;;;;29.63;15.00;;;;;;;;;;5037430;28;20077;-65
2022/03/02 08:51:58;;;;;;;29.00;14.80;;;;;;;;;;5058831;28;20029;-67
2022/03/02 08:54:44;;;;;;;29.48;13.50;;;;;;;;;;5051711;28;20040;-62
2022/03/02 08:57:31;;;;;;;27.10;15.45;;;;;;;;;;5053675;28;20024;-64
2022/03/02 09:00:16;;;;;;;23.95;15.70;;;;;;;;;;5051416;28;20033;-66
2022/03/02 09:03:02;;;;;;;24.65;14.93;;;;;;;;;;5051104;28;20036;-67
2022/03/02 09:05:48;;;;;;;28.25;14.85;;;;;;;;;;5051286;28;20125;-64
2022/03/02 09:08:33;;;;;;;24.00;14.77;;;;;;;;;;5063774;28;20036;-62
2022/03/02 09:11:19;;;;;;;24.45;14.52;;;;;;;;;;5046709;28;20546;-64
2022/03/02 09:14:04;;;;;;;26.23;14.98;;;;;;;;;;5055281;28;20059;-63
2022/03/02 09:16:49;;;;;;;23.88;14.75;;;;;;;;;;5062096;28;20479;-69
2022/03/02 09:19:35;;;;;;;26.50;14.30;;;;;;;;;;5053228;28;20028;-68
2022/03/02 09:22:22;;;;;;;29.42;15.90;;;;;;;;;;5051564;28;20028;-68
2022/03/02 09:25:07;;;;;;;27.95;14.93;;;;;;;;;;5051153;28;20470;-68
2022/03/02 09:27:55;;;;;;;29.55;16.05;;;;;;;;;;5049135;28;20044;-70
2022/03/02 09:30:41;;;;;;;22.45;14.45;;;;;;;;;;5053418;28;20382;-70
2022/03/02 09:33:27;;;;;;;23.33;14.35;;;;;;;;;;5049567;28;20040;-61
2022/03/02 09:36:12;;;;;;;22.30;13.32;;;;;;;;;;5046957;28;20028;-60
2022/03/02 09:38:57;;;;;;;26.70;14.38;;;;;;;;;;5041446;28;20040;-62
2022/03/02 09:42:00;;;;;;;24.63;15.10;;;;;;;;;;5057763;28;20033;-61
2022/03/02 09:44:47;;;;;;;26.92;14.10;;;;;;;;;;5049681;28;20486;-61
2022/03/02 09:47:41;;;;;;;27.35;14.38;;;;;;;;;;5038750;28;20024;-62
2022/03/02 09:50:31;;;;;;;29.27;15.00;;;;;;;;;;5032970;28;20029;-70
2022/03/02 09:53:16;;;;;;;23.85;15.10;;;;;;;;;;5051133;28;20094;-66
2022/03/02 09:56:03;;;;;;;21.50;14.13;;;;;;;;;;5042680;28;20545;-66
2022/03/02 09:58:50;;;;;;;24.00;12.70;;;;;;;;;;5057948;28;20783;-65
2022/03/02 10:01:35;;;;;;;20.98;13.00;;;;;;;;;;5050191;28;20016;-66
2022/03/02 10:04:22;;;;;;;21.52;12.48;;;;;;;;;;5055798;28;20028;-63
2022/03/02 10:07:26;;;;;;;22.90;13.27;;;;;;;;;;5047968;28;20109;-67
2022/03/02 10:10:17;;;;;;;20.00;12.80;;;;;;;;;;5053922;28;20498;-70
2022/03/02 10:13:03;;;;;;;23.58;12.60;;;;;;;;;;5056038;28;20368;-69
2022/03/02 10:15:49;;;;;;;20.85;11.98;;;;;;;;;;5052753;28;20398;-72
2022/03/02 10:18:34;;;;;;;21.35;12.80;;;;;;;;;;5049608;28;20068;-67
2022/03/02 10:21:23;;;;;;;20.30;12.45;;;;;;;;;;5052009;28;20024;-71
2022/03/02 10:24:13;;;;;;;19.63;12.83;;;;;;;;;;5056299;28;20037;-72
2022/03/02 10:26:59;;;;;;;;;;;;;;;;;;5054841;28;20145;-67
2022/03/02 10:29:53;;;;;;;20.60;12.38;;;;;;;;;;5038417;28;20375;-71
2022/03/02 10:32:40;;;;;;;25.00;12.63;;;;;;;;;;5054765;28;20041;-69
2022/03/02 10:35:28;;;;;;;26.13;12.60;;;;;;;;;;5039319;28;20630;-68
2022/03/02 10:38:15;;;;;;;28.13;13.55;;;;;;;;;;5052791;28;20483;-69
2022/03/02 10:41:00;;;;;;;20.13;12.40;;;;;;;;;;5053055;28;20082;-70
2022/03/02 10:43:49;;;;;;;17.00;12.07;;;;;;;;;;5063943;28;20036;-62
2022/03/02 10:46:38;;;;;;;23.23;11.27;;;;;;;;;;5054715;28;20073;-64
2022/03/02 10:49:23;;;;;;;;;;;;;;;;;;5055721;28;20028;-63
2022/03/02 10:52:11;;;;;;;20.58;11.00;;;;;;;;;;5059420;28;20581;-65
2022/03/02 10:54:57;;;;;;;22.63;11.98;;;;;;;;;;5055616;28;20032;-66
2022/03/02 10:57:45;;;;;;;18.77;11.50;;;;;;;;;;5054525;28;20041;-66
2022/03/02 11:00:31;;;;;;;18.13;11.27;;;;;;;;;;5052547;28;20407;-65
2022/03/02 11:03:17;;;;;;;17.52;11.82;;;;;;;;;;5059046;28;20028;-69
2022/03/02 11:06:03;;;;;;;18.95;11.85;;;;;;;;;;5054519;28;20098;-72
2022/03/02 11:08:48;;;;;;;16.90;11.68;;;;;;;;;;5046456;28;20524;-73
2022/03/02 11:11:36;;;;;;;17.83;11.98;;;;;;;;;;5057768;28;20033;-74
2022/03/02 11:14:21;;;;;;;20.63;12.20;;;;;;;;;;5042501;28;20111;-72
2022/03/02 11:17:15;;;;;;;18.98;11.30;;;;;;;;;;5059164;28;20178;-73
2022/03/02 11:20:05;;;;;;;18.60;11.52;;;;;;;;;;5053490;28;20028;-62
2022/03/02 11:22:51;;;;;;;23.02;11.98;;;;;;;;;;5062472;28;20127;-71
2022/03/02 11:25:43;;;;;;;17.80;11.85;;;;;;;;;;5051235;28;20020;-62
2022/03/02 11:28:29;;;;;;;18.92;11.43;;;;;;;;;;5063117;28;20036;-61
2022/03/02 11:31:21;;;;;;;25.55;14.85;;;;;;;;;;5065564;28;20025;-61
2022/03/02 11:34:10;;;;;;;20.80;13.77;;;;;;;;;;5048368;28;20032;-63
2022/03/02 11:37:00;;;;;;;26.90;16.38;;;;;;;;;;5050369;28;20028;-62
2022/03/02 11:39:48;;;;;;;24.23;15.30;;;;;;;;;;5048942;28;20047;-62
2022/03/02 11:42:34;;;;;;;25.55;14.25;;;;;;;;;;5057920;28;20036;-60
2022/03/02 11:45:20;;;;;;;22.63;14.00;;;;;;;;;;5048515;28;20055;-62
2022/03/02 11:48:09;;;;;;;23.77;15.13;;;;;;;;;;5062527;28;20311;-62
2022/03/02 11:51:06;;;;;;;28.45;15.00;;;;;;;;;;5038108;28;20066;-63
2022/03/02 11:53:54;;;;;;;22.38;13.27;;;;;;;;;;5050258;28;20464;-61
2022/03/02 11:56:39;;;;;;;22.77;13.27;;;;;;;;;;5050962;28;20021;-65
2022/03/02 11:59:28;;;;;;;23.90;13.55;;;;;;;;;;5057840;28;20028;-69
2022/03/02 12:02:18;;;;;;;24.63;12.98;;;;;;;;;;5038464;28;20237;-67
2022/03/02 12:05:05;;;;;;;23.48;14.25;;;;;;;;;;5049159;28;20016;-66
2022/03/02 12:07:59;;;;;;;23.83;13.65;;;;;;;;;;5052667;28;20102;-68
2022/03/02 12:10:54;;;;;;;21.58;13.50;;;;;;;;;;5050753;28;20414;-69
2022/03/02 12:13:58;;;;;;;22.52;14.80;;;;;;;;;;5044483;28;20560;-66
2022/03/02 12:16:46;;;;;;;20.75;13.65;;;;;;;;;;5049092;28;20378;-68
2022/03/02 12:19:32;;;;;;;20.65;12.85;;;;;;;;;;5060948;28;20031;-64
2022/03/02 12:22:17;;;;;;;20.05;12.48;;;;;;;;;;5051263;28;20356;-63
2022/03/02 12:25:03;;;;;;;25.17;13.55;;;;;;;;;;5052063;28;20028;-63
2022/03/02 12:27:59;;;;;;;21.13;12.88;;;;;;;;;;5051812;28;20045;-65
2022/03/02 12:30:44;;;;;;;22.35;13.38;;;;;;;;;;5051590;28;20123;-63
2022/03/02 12:33:30;;;;;;;21.95;13.63;;;;;;;;;;5036887;28;20032;-64
2022/03/02 12:36:15;;;;;;;22.00;12.20;;;;;;;;;;5057098;28;20105;-66
2022/03/02 12:39:00;;;;;;;22.88;13.93;;;;;;;;;;5027364;28;20059;-70
2022/03/02 12:41:45;;;;;;;19.38;12.38;;;;;;;;;;5051515;28;20064;-67
2022/03/02 12:44:35;;;;;;;21.85;12.82;;;;;;;;;;5051391;28;20035;-70
2022/03/02 12:47:22;;;;;;;19.42;12.07;;;;;;;;;;5050550;28;20089;-69
2022/03/02 12:50:08;;;;;;;18.55;12.10;;;;;;;;;;5069436;28;20085;-69
2022/03/02 12:52:54;;;;;;;24.67;13.45;;;;;;;;;;5056869;28;20089;-61
2022/03/02 12:55:40;;;;;;;19.98;12.55;;;;;;;;;;5051129;28;20024;-65
2022/03/02 12:58:25;;;;;;;24.00;12.98;;;;;;;;;;5050704;28;20086;-68
2022/03/02 13:01:11;;;;;;;20.25;12.90;;;;;;;;;;5051706;28;20024;-65
2022/03/02 13:03:59;;;;;;;17.42;12.43;;;;;;;;;;5051458;28;20063;-64
2022/03/02 13:06:50;;;;;;;21.08;12.63;;;;;;;;;;5050183;28;20717;-66
2022/03/02 13:09:38;;;;;;;22.95;13.10;;;;;;;;;;5051456;28;20024;-63
2022/03/02 13:12:31;;;;;;;19.52;11.93;;;;;;;;;;5051829;28;20036;-68
2022/03/02 13:15:24;;;;;;;21.15;13.32;;;;;;;;;;5042031;28;20025;-71
2022/03/02 13:18:09;;;;;;;16.50;10.73;;;;;;;;;;5048068;28;20036;-71
2022/03/02 13:21:00;;;;;;;22.02;12.13;;;;;;;;;;5055239;28;20035;-70
2022/03/02 13:24:01;;;;;;;20.70;12.98;;;;;;;;;;5058860;28;20020;-71
2022/03/02 13:27:00;;;;;;;19.23;12.48;;;;;;;;;;5053786;28;20348;-70
2022/03/02 13:29:48;;;;;;;17.42;11.02;;;;;;;;;;5032514;28;20032;-59
2022/03/02 13:32:55;;;;;;;20.60;11.57;;;;;;;;;;5052367;28;20121;-61
2022/03/02 13:36:00;;;;;;;17.80;10.65;;;;;;;;;;5048737;28;20114;-62
2022/03/02 13:38:46;;;;;;;20.63;11.30;;;;;;;;;;5045823;28;20089;-62
2022/03/02 13:41:42;;;;;;;20.90;11.52;;;;;;;;;;5047597;28;20060;-65
2022/03/02 13:44:30;;;;;;;28.77;11.95;;;;;;;;;;5047645;28;20031;-61
2022/03/02 13:47:18;;;;;;;33.47;12.80;;;;;;;;;;5051760;28;20104;-67
2022/03/02 13:50:05;;;;;;;22.05;12.05;;;;;;;;;;5051650;28;20051;-67
2022/03/02 13:52:59;;;;;;;20.85;12.68;;;;;;;;;;5052330;28;20878;-69
2022/03/02 13:55:45;;;;;;;21.13;12.25;;;;;;;;;;5046485;28;20055;-69
2022/03/02 13:58:31;;;;;;;15.18;10.68;;;;;;;;;;5053676;28;20473;-70
2022/03/02 14:01:24;;;;;;;15.40;10.95;;;;;;;;;;5053612;28;20024;-68
2022/03/02 14:04:18;;;;;;;19.80;10.88;;;;;;;;;;5051790;28;20071;-67
2022/03/02 14:07:05;;;;;;;17.60;10.80;;;;;;;;;;5053215;28;20344;-69
2022/03/02 14:10:00;;;;;;;15.50;10.52;;;;;;;;;;5039622;28;20059;-64
2022/03/02 14:12:56;;;;;;;24.23;10.70;;;;;;;;;;5038459;28;20128;-60
2022/03/02 14:15:41;;;;;;;16.85;11.10;;;;;;;;;;5055338;28;20036;-62
2022/03/02 14:18:26;;;;;;;17.52;10.85;;;;;;;;;;5054861;28;20174;-61
2022/03/02 14:21:12;;;;;;;18.33;10.35;;;;;;;;;;5040713;28;20056;-62
2022/03/02 14:23:57;;;;;;;18.33;10.73;;;;;;;;;;5055065;28;20417;-65
2022/03/02 14:26:51;;;;;;;17.40;10.77;;;;;;;;;;5057034;28;20031;-74
2022/03/02 14:29:38;;;;;;;19.10;10.05;;;;;;;;;;5055867;28;20040;-72
2022/03/02 14:32:51;;;;;;;16.33;10.63;;;;;;;;;;5060720;28;20031;-71
2022/03/02 14:35:36;;;;;;;19.27;10.73;;;;;;;;;;5052908;28;20028;-73
2022/03/02 14:38:21;;;;;;;17.80;10.63;;;;;;;;;;5054734;28;20104;-71
2022/03/02 14:41:06;;;;;;;20.25;11.35;;;;;;;;;;5040674;28;20032;-73
2022/03/02 14:43:52;;;;;;;15.68;10.48;;;;;;;;;;5056068;28;20133;-66
2022/03/02 14:46:37;;;;;;;16.35;10.65;;;;;;;;;;5051463;28;20041;-66
2022/03/02 14:49:22;;;;;;;16.50;10.30;;;;;;;;;;5054360;28;20538;-67
2022/03/02 14:52:07;;;;;;;20.40;9.90;;;;;;;;;;5053031;28;20115;-65
2022/03/02 14:54:53;;;;;;;14.68;10.10;;;;;;;;;;5054649;28;20032;-67
2022/03/02 14:57:38;;;;;;;17.85;11.13;;;;;;;;;;5049062;28;20037;-65
2022/03/02 15:00:24;;;;;;;14.13;9.75;;;;;;;;;;5061466;28;20043;-65
2022/03/02 15:03:14;;;;;;;16.58;10.57;;;;;;;;;;5047510;28;20028;-63
2022/03/02 15:06:01;;;;;;;17.92;10.00;;;;;;;;;;5061461;28;20040;-66
2022/03/02 15:08:51;;;;;;;19.35;10.38;;;;;;;;;;5053132;28;20040;-66
2022/03/02 15:11:38;;;;;;;17.25;10.38;;;;;;;;;;5050431;28;20150;-66
2022/03/02 15:17:28;;;;;;;17.10;11.27;;;;;;;;;;5049487;28;20028;-68
2022/03/02 15:20:14;;;;;;;17.70;10.90;;;;;;;;;;5052429;28;20029;-67
2022/03/02 15:22:59;;;;;;;16.30;10.63;;;;;;;;;;5048723;28;20422;-65
2022/03/02 15:25:45;;;;;;;17.27;10.10;;;;;;;;;;5051665;28;20039;-66
2022/03/02 15:28:30;;;;;;;16.50;10.98;;;;;;;;;;5063470;28;20059;-64
2022/03/02 15:31:15;;;;;;;15.82;10.35;;;;;;;;;;5058464;28;20040;-65
2022/03/02 15:34:14;;;;;;;18.15;10.18;;;;;;;;;;5052789;28;20521;-63
2022/03/02 15:37:01;;;;;;;20.30;11.15;;;;;;;;;;5037178;28;20029;-63
2022/03/02 15:39:51;;;;;;;16.98;10.23;;;;;;;;;;5038094;28;20040;-68
2022/03/02 15:42:42;;;;;;;19.23;11.15;;;;;;;;;;5053342;28;20025;-67
2022/03/02 15:45:30;;;;;;;14.98;10.43;;;;;;;;;;5054262;28;20033;-69
2022/03/02 15:48:17;;;;;;;21.02;11.27;;;;;;;;;;5039063;28;20025;-69
2022/03/02 15:51:04;;;;;;;20.45;12.13;;;;;;;;;;5057159;28;20116;-70
2022/03/02 15:53:49;;;;;;;20.13;11.93;;;;;;;;;;5052883;28;20033;-72
2022/03/02 15:56:34;;;;;;;24.45;10.77;;;;;;;;;;5048131;28;20029;-70
2022/03/02 15:59:21;;;;;;;17.42;9.82;;;;;;;;;;5047808;28;20107;-63
2022/03/02 16:02:22;;;;;;;18.48;10.38;;;;;;;;;;5036826;28;20238;-68
2022/03/02 16:05:12;;;;;;;18.40;11.27;;;;;;;;;;5055822;28;20122;-63
2022/03/02 16:07:57;;;;;;;;;;;;;;;;;;5050841;28;20127;-64
2022/03/02 16:10:44;;;;;;;16.75;10.75;;;;;;;;;;5049862;28;19916;-66
2022/03/02 16:13:29;;;;;;;19.23;10.07;;;;;;;;;;5026976;28;20071;-66
2022/03/02 16:16:16;;;;;;;18.70;10.57;;;;;;;;;;5037633;28;20474;-65